• Join FlightAware (Why Join?)
  • Login
  • US Flag 
10:54PM EDT


 

Airport Tracker/Info


-or-


 

Live Flight TrackerFlight Track Log ✈ SWA2130 ✈ 03-May-2013 ✈ KSFO - KLAX

Flight Track Log - Related Links

Times and Time Zones

All times are in EDT time to prevent confusion due to time zone crossing. See the SWA2130 flight status page for this flight to view local times or setup timezone preferences in your user account.

Time Position Orientation Groundspeed Altitude Reporting Facility
EDT Latitude Longitude Course Direction KTS MPH feet Rate Location/Type
06:51PM 37.6531 -122.3661 136° Southeast 171 197 1,700  Level Oakland Center
06:52PM 37.6844 -122.4122 311° West 237 273 3,900 2,340 Climbing Oakland Center
06:53PM 37.6197 -122.4417 200° South 257 296 6,600 3,120 Climbing Oakland Center
06:54PM 37.5414 -122.4144 165° South 289 333 10,300 3,060 Climbing Oakland Center
06:55PM 37.4761 -122.3281 134° Southeast 343 395 12,900 3,000 Climbing Oakland Center
06:56PM 37.3647 -122.2443 136° Southeast  Level FlightAware Approximate
06:56PM 37.4072 -122.2342 133° Southeast 364 419 16,500  Level Oakland Center
06:57PM 37.3194 -122.1183 134° Southeast 381 438 20,200 3,060 Climbing Oakland Center
06:58PM 37.2403 -122.0136 134° Southeast 410 472 22,800 2,460 Climbing Oakland Center
06:59PM 37.1589 -121.9050 133° Southeast 426 490 25,300 2,340 Climbing Oakland Center
07:00PM 37.0744 -121.7942 134° Southeast 439 505 27,700 2,040 Climbing Oakland Center
07:01PM 36.9847 -121.6844 136° Southeast 448 516 29,600 1,680 Climbing Oakland Center
07:02PM 36.8944 -121.5669 134° Southeast 466 536 31,200 1,740 Climbing Oakland Center
07:03PM 36.8072 -121.4500 133° Southeast 477 549 33,200 1,860 Climbing Oakland Center
07:04PM 36.7156 -121.3328 134° Southeast 473 544 35,100 1,980 Climbing Oakland Center
07:05PM 36.6067 -121.1936 134° Southeast 467 537 37,300 1,860 Climbing Oakland Center
07:06PM 36.5161 -121.0786 134° Southeast 463 533 38,900 780 Climbing Oakland Center
07:07PM 36.4286 -120.9625 133° Southeast 461 531 39,000  Climbing Oakland Center
07:08PM 36.3403 -120.8511 135° Southeast 455 524 39,000  Level Oakland Center
07:09PM 36.2517 -120.7378 134° Southeast 455 524 39,000  Level Oakland Center
07:10PM 36.1625 -120.6267 135° Southeast 453 521 39,000  Level Oakland Center
07:11PM 36.0744 -120.5142 134° Southeast 452 520 39,000  Level Oakland Center
07:12PM 35.9869 -120.4033 134° Southeast 441 507 39,000  Level Oakland Center
07:13PM 35.8972 -120.2925 135° Southeast 448 516 39,000  Level Oakland Center
07:14PM 35.8100 -120.1825 134° Southeast 447 514 39,000  Level Oakland Center
07:15PM 35.7214 -120.0725 135° Southeast 447 514 39,000  Level Oakland Center
07:16PM 35.6300 -119.9636 136° Southeast 460 529 39,000  Level Oakland Center
07:17PM 35.5069 -119.8567 145° Southeast 448 516 39,000  Level Oakland Center
07:18PM 35.4047 -119.7689 145° Southeast 446 513 39,000 -1,080 Level Oakland Center
07:19PM 35.3028 -119.6822 145° Southeast 445 512 36,900 -1,500 Descending Los Angeles Center
07:20PM 35.2008 -119.5933 145° Southeast 449 517 36,000 -1,440 Descending Los Angeles Center
07:21PM 35.0969 -119.5042 145° Southeast 454 522 34,000 -2,400 Descending Los Angeles Center
07:23PM 34.9922 -119.4156 145° Southeast 456 525 31,100 -2,580 Descending Los Angeles Center
07:24PM 34.8894 -119.3283 145° Southeast 453 521 28,700 -2,280 Descending Los Angeles Center
07:25PM 34.7881 -119.2450 146° Southeast 443 510 26,400 -2,460 Descending Los Angeles Center
07:26PM 34.6736 -119.1478 145° Southeast 424 488 23,700 -2,340 Descending Los Angeles Center
07:27PM 34.5842 -119.0722 145° Southeast 414 476 21,600 -2,040 Descending Los Angeles Center
07:28PM 34.4939 -118.9950 145° Southeast 394 453 19,500 -2,100 Descending Los Angeles Center
07:29PM 34.4058 -118.9228 146° Southeast 383 441 17,300 -2,280 Descending Los Angeles Center
07:30PM 34.2975 -118.8597 154° Southeast 359 413 14,800 -2,220 Descending Los Angeles Center
07:31PM 34.2025 -118.8244 163° South 357 411 12,700 -1,440 Descending Los Angeles Center
07:32PM 34.1128 -118.7919 163° South 336 387 11,900 -1,260 Descending Los Angeles Center
07:33PM 34.0381 -118.7403 150° Southeast 299 344 10,200 -1,140 Descending Los Angeles Center
07:34PM 34.0264 -118.6336 97° East 301 346 9,600 -960 Descending Los Angeles Center
07:35PM 34.0175 -118.5383 96° East 290 334 8,300 -1,380 Descending Los Angeles Center
07:36PM 34.0114 -118.4419 94° East 276 318 6,800 -1,260 Descending Los Angeles Center
07:37PM 34.0183 -118.3594 84° East 259 298 5,800 -1,140 Descending Los Angeles Center
07:38PM 34.0233 -118.2850 85° East 233 268 4,500 -1,380 Descending Los Angeles Center
07:39PM 33.9778 -118.2725 167° South 200 230 3,000 -1,500 Descending Los Angeles Center
07:40PM 33.9617 -118.3208 248° West 174 200 1,500 -1,140 Descending Los Angeles Center
07:41PM 33.9564 -118.3661 262° West 153 176 700 -660 Descending Los Angeles Center
07:42PM 33.9514 -118.4053 261° West 133 153 200 -540 Descending Los Angeles Center
07:44PM 33.9425 -118.4081 228° Southwest  Level Estimated